createdAt,value
2023-05-24T00:00:48.352Z,6.24
2023-05-24T00:01:48.287Z,6.16
2023-05-24T00:02:48.335Z,6.30
2023-05-24T00:03:48.356Z,6.06
2023-05-24T00:04:48.298Z,5.70
2023-05-24T00:05:48.230Z,5.66
2023-05-24T00:06:48.277Z,5.60
2023-05-24T00:07:48.218Z,5.55
2023-05-24T00:08:48.193Z,5.45
2023-05-24T00:09:48.176Z,5.49
2023-05-24T00:10:48.163Z,4.91
2023-05-24T00:11:48.154Z,4.66
2023-05-24T00:12:48.135Z,4.96
2023-05-24T00:13:48.126Z,4.68
2023-05-24T00:14:48.104Z,4.62
2023-05-24T00:15:48.126Z,4.87
2023-05-24T00:16:48.086Z,4.90
2023-05-24T00:17:48.109Z,5.31
2023-05-24T00:18:48.066Z,5.25
2023-05-24T00:19:48.075Z,5.32
2023-05-24T00:20:48.330Z,5.13
2023-05-24T00:21:48.035Z,5.27
2023-05-24T00:22:48.018Z,5.44
2023-05-24T00:23:48.012Z,5.27
2023-05-24T00:24:48.027Z,5.25
2023-05-24T00:25:47.988Z,5.22
2023-05-24T00:26:47.991Z,4.76
2023-05-24T00:27:47.982Z,5.10
2023-05-24T00:28:47.963Z,5.29
2023-05-24T00:29:48.022Z,5.19
2023-05-24T00:30:47.997Z,5.28
2023-05-24T00:31:47.934Z,5.27
2023-05-24T00:32:47.951Z,5.39
2023-05-24T00:33:47.971Z,5.43
2023-05-24T00:34:47.899Z,5.56
2023-05-24T00:35:47.918Z,5.57
2023-05-24T00:36:47.956Z,5.48
2023-05-24T00:37:47.874Z,5.65
2023-05-24T00:38:47.874Z,5.70
2023-05-24T00:39:47.837Z,5.49
2023-05-24T00:40:47.838Z,5.71
2023-05-24T00:41:47.814Z,5.83
2023-05-24T00:42:47.803Z,5.77
2023-05-24T00:43:47.786Z,5.87
2023-05-24T00:44:47.778Z,5.74
2023-05-24T00:45:47.810Z,5.89
2023-05-24T00:46:47.744Z,5.67
2023-05-24T00:47:47.768Z,5.54
2023-05-24T00:48:47.723Z,5.66
2023-05-24T00:49:47.713Z,5.64
2023-05-24T00:50:47.706Z,5.64
2023-05-24T00:51:47.690Z,5.54
2023-05-24T00:52:47.697Z,5.75
2023-05-24T00:53:47.685Z,6.04
2023-05-24T00:54:47.657Z,5.97
2023-05-24T00:55:47.666Z,6.05
2023-05-24T00:56:47.693Z,6.02
2023-05-24T00:57:47.719Z,6.17
2023-05-24T00:58:47.650Z,6.07
2023-05-24T00:59:47.689Z,6.16
2023-05-24T01:00:47.608Z,6.51
2023-05-24T01:01:47.646Z,6.48
2023-05-24T01:02:47.693Z,6.27
2023-05-24T01:03:47.673Z,6.52
2023-05-24T01:04:47.556Z,6.65
2023-05-24T01:05:47.563Z,6.68
2023-05-24T01:06:47.527Z,6.71
2023-05-24T01:07:47.529Z,6.67
2023-05-24T01:08:47.519Z,6.65
2023-05-24T01:09:47.506Z,6.67
2023-05-24T01:10:47.505Z,6.60
2023-05-24T01:11:47.486Z,6.62
2023-05-24T01:12:47.499Z,6.66
2023-05-24T01:13:47.512Z,6.78
2023-05-24T01:14:47.467Z,6.56
2023-05-24T01:15:47.499Z,6.75
2023-05-24T01:16:47.462Z,6.87
2023-05-24T01:17:47.502Z,6.88
2023-05-24T01:18:47.461Z,6.90
2023-05-24T01:19:47.430Z,6.94
2023-05-24T01:20:47.695Z,7.04
2023-05-24T01:21:47.433Z,7.29
2023-05-24T01:22:47.409Z,6.89
2023-05-24T01:23:47.392Z,6.90
2023-05-24T01:24:47.380Z,6.97
2023-05-24T01:25:47.388Z,7.19
2023-05-24T01:26:47.368Z,7.36
2023-05-24T01:27:47.384Z,7.65
2023-05-24T01:28:47.348Z,7.87
2023-05-24T01:29:47.343Z,7.74
2023-05-24T01:30:47.354Z,7.62
2023-05-24T01:31:47.429Z,7.93
2023-05-24T01:32:47.355Z,8.13
2023-05-24T01:33:47.288Z,7.97
2023-05-24T01:34:47.305Z,7.57
2023-05-24T01:35:47.340Z,7.52
2023-05-24T01:36:47.261Z,7.38
2023-05-24T01:37:47.270Z,7.66
2023-05-24T01:38:47.256Z,7.75
2023-05-24T01:39:47.225Z,7.67
2023-05-24T01:40:47.227Z,7.87
2023-05-24T01:41:47.248Z,7.90
2023-05-24T01:42:47.266Z,7.72
2023-05-24T01:43:47.271Z,7.62
2023-05-24T01:44:47.307Z,7.77
2023-05-24T01:45:47.328Z,7.77
2023-05-24T01:46:47.385Z,7.62
2023-05-24T01:47:47.370Z,7.58
2023-05-24T01:48:47.382Z,7.73
2023-05-24T01:49:47.453Z,7.84
2023-05-24T01:50:47.474Z,7.90
2023-05-24T01:51:47.599Z,8.02
2023-05-24T01:52:47.539Z,7.95
2023-05-24T01:53:47.680Z,8.00
2023-05-24T01:54:47.575Z,8.16
2023-05-24T01:55:47.576Z,8.23
2023-05-24T01:56:47.593Z,8.14
2023-05-24T01:57:47.581Z,7.94
2023-05-24T01:58:47.581Z,8.12
2023-05-24T01:59:47.572Z,7.87
2023-05-24T02:00:47.587Z,7.95
2023-05-24T02:01:47.560Z,8.01
2023-05-24T02:02:47.628Z,8.10
2023-05-24T02:03:47.556Z,8.05
2023-05-24T02:04:47.607Z,8.27
2023-05-24T02:05:47.564Z,8.24
2023-05-24T02:06:47.569Z,8.30
2023-05-24T02:07:47.538Z,8.39
2023-05-24T02:08:47.596Z,8.20
2023-05-24T02:09:47.566Z,8.20
2023-05-24T02:10:47.580Z,8.14
2023-05-24T02:11:47.582Z,8.28
2023-05-24T02:12:47.537Z,8.54
2023-05-24T02:13:47.528Z,8.35
2023-05-24T02:14:47.512Z,8.35
2023-05-24T02:15:47.513Z,8.38
2023-05-24T02:16:47.536Z,8.36
2023-05-24T02:17:47.642Z,8.69
2023-05-24T02:18:47.498Z,8.79
2023-05-24T02:19:47.531Z,8.82
2023-05-24T02:20:47.478Z,8.94
2023-05-24T02:21:47.484Z,8.58
2023-05-24T02:22:47.472Z,8.61
2023-05-24T02:23:47.500Z,8.86
2023-05-24T02:24:47.478Z,8.86
2023-05-24T02:25:47.484Z,8.74
2023-05-24T02:26:47.487Z,8.72
2023-05-24T02:27:47.487Z,8.81
2023-05-24T02:28:47.462Z,8.61
2023-05-24T02:29:47.472Z,8.98
2023-05-24T02:30:47.585Z,9.08
2023-05-24T02:31:47.468Z,9.09
2023-05-24T02:32:47.469Z,8.92
2023-05-24T02:33:47.458Z,8.94
2023-05-24T02:34:47.426Z,8.95
2023-05-24T02:35:47.418Z,8.98
2023-05-24T02:36:47.425Z,9.13
2023-05-24T02:37:47.426Z,9.34
2023-05-24T02:38:47.403Z,9.65
2023-05-24T02:39:47.372Z,9.52
2023-05-24T02:40:47.368Z,9.59
2023-05-24T02:41:47.363Z,9.75
2023-05-24T02:42:47.340Z,9.86
2023-05-24T02:43:47.334Z,9.87
2023-05-24T02:44:47.326Z,9.87
2023-05-24T02:45:47.311Z,9.88
2023-05-24T02:46:47.437Z,9.80
2023-05-24T02:47:47.361Z,9.64
2023-05-24T02:48:47.299Z,9.60
2023-05-24T02:49:47.299Z,9.56
2023-05-24T02:50:47.279Z,9.58
2023-05-24T02:51:47.271Z,9.59
2023-05-24T02:52:47.247Z,9.59
2023-05-24T02:53:47.253Z,9.83
2023-05-24T02:54:47.250Z,9.96
2023-05-24T02:55:47.242Z,10.24
2023-05-24T02:56:47.219Z,10.16
2023-05-24T02:57:47.222Z,10.00
2023-05-24T02:58:47.218Z,10.16
2023-05-24T02:59:47.219Z,10.09
2023-05-24T03:00:47.209Z,10.00
2023-05-24T03:01:47.213Z,9.98
2023-05-24T03:02:47.240Z,10.12
2023-05-24T03:03:47.283Z,10.08
2023-05-24T03:04:47.187Z,9.88
2023-05-24T03:05:47.220Z,10.18
2023-05-24T03:06:47.181Z,10.30
2023-05-24T03:07:47.175Z,10.30
2023-05-24T03:08:47.155Z,10.33
2023-05-24T03:09:47.147Z,10.13
2023-05-24T03:10:47.136Z,10.31
2023-05-24T03:11:47.156Z,10.41
2023-05-24T03:12:47.137Z,10.30
2023-05-24T03:13:47.146Z,10.27
2023-05-24T03:14:47.138Z,10.41
2023-05-24T03:15:47.168Z,10.06
2023-05-24T03:16:47.096Z,9.85
2023-05-24T03:17:47.172Z,10.28
2023-05-24T03:18:47.093Z,10.56
2023-05-24T03:19:47.083Z,10.58
2023-05-24T03:20:47.119Z,10.54
2023-05-24T03:21:47.060Z,10.67
2023-05-24T03:22:47.076Z,10.44
2023-05-24T03:23:47.053Z,10.65
2023-05-24T03:24:47.045Z,10.60
2023-05-24T03:25:47.039Z,10.82
2023-05-24T03:26:47.016Z,10.86
2023-05-24T03:27:47.001Z,10.99
2023-05-24T03:28:46.999Z,11.19
2023-05-24T03:29:46.981Z,11.21
2023-05-24T03:30:47.001Z,11.03
2023-05-24T03:31:47.063Z,11.00
2023-05-24T03:32:47.025Z,10.87
2023-05-24T03:33:46.979Z,10.69
2023-05-24T03:34:46.977Z,11.02
2023-05-24T03:35:46.936Z,10.74
2023-05-24T03:36:46.937Z,10.95
2023-05-24T03:37:46.914Z,10.81
2023-05-24T03:38:46.886Z,11.10
2023-05-24T03:39:46.887Z,10.99
2023-05-24T03:40:46.881Z,11.02
2023-05-24T03:41:46.890Z,10.80
2023-05-24T03:42:46.856Z,10.84
2023-05-24T03:43:46.849Z,10.86
2023-05-24T03:44:46.828Z,10.90
2023-05-24T03:45:46.851Z,10.86
2023-05-24T03:46:46.826Z,10.86
2023-05-24T03:47:46.831Z,10.89
2023-05-24T03:48:46.793Z,10.89
2023-05-24T03:49:46.800Z,10.57
2023-05-24T03:50:46.781Z,10.63
2023-05-24T03:51:46.777Z,10.39
2023-05-24T03:52:46.772Z,10.13
2023-05-24T03:53:46.797Z,10.31
2023-05-24T03:54:46.772Z,10.17
2023-05-24T03:55:47.075Z,10.21
2023-05-24T03:56:46.747Z,10.34
2023-05-24T03:57:46.736Z,10.03
2023-05-24T03:58:46.759Z,10.15
2023-05-24T03:59:46.726Z,9.90
2023-05-24T04:00:46.713Z,10.07
2023-05-24T04:01:46.688Z,10.11
2023-05-24T04:02:46.729Z,10.13
2023-05-24T04:03:46.698Z,10.00
2023-05-24T04:04:46.657Z,9.86
2023-05-24T04:05:46.650Z,9.70
2023-05-24T04:06:46.649Z,9.45
2023-05-24T04:07:46.666Z,9.05
2023-05-24T04:08:46.616Z,8.83
2023-05-24T04:09:46.613Z,8.97
2023-05-24T04:10:46.607Z,8.97
2023-05-24T04:11:46.609Z,8.50
2023-05-24T04:12:46.593Z,8.46
2023-05-24T04:13:46.587Z,8.46
2023-05-24T04:14:46.579Z,8.45
2023-05-24T04:15:46.582Z,8.25
2023-05-24T04:16:46.569Z,8.24
2023-05-24T04:17:46.740Z,8.22
2023-05-24T04:18:46.727Z,8.11
2023-05-24T04:19:46.577Z,7.98
2023-05-24T04:20:46.597Z,7.81
2023-05-24T04:21:46.650Z,7.87
2023-05-24T04:22:46.593Z,7.67
2023-05-24T04:23:46.592Z,7.48
2023-05-24T04:24:46.593Z,7.40
2023-05-24T04:25:46.599Z,7.35
2023-05-24T04:26:46.603Z,7.33
2023-05-24T04:27:46.601Z,7.40
2023-05-24T04:28:46.616Z,7.30
2023-05-24T04:29:46.612Z,6.95
2023-05-24T04:30:46.624Z,6.62
2023-05-24T04:31:46.676Z,6.93
2023-05-24T04:32:46.746Z,6.58
2023-05-24T04:33:46.613Z,6.52
2023-05-24T04:34:46.646Z,6.62
2023-05-24T04:35:46.622Z,6.72
2023-05-24T04:36:46.629Z,6.38
2023-05-24T04:37:46.658Z,6.21
2023-05-24T04:38:46.623Z,6.19
2023-05-24T04:39:46.653Z,6.20
2023-05-24T04:40:46.619Z,6.22
2023-05-24T04:41:46.630Z,6.25
2023-05-24T04:42:46.628Z,6.24
2023-05-24T04:43:46.628Z,6.18
2023-05-24T04:44:46.633Z,6.25
2023-05-24T04:45:46.629Z,6.33
2023-05-24T04:46:46.689Z,6.24
2023-05-24T04:47:46.684Z,6.38
2023-05-24T04:48:46.609Z,6.37
2023-05-24T04:49:46.683Z,6.28
2023-05-24T04:50:46.639Z,5.91
2023-05-24T04:51:46.636Z,5.97
2023-05-24T04:52:46.672Z,6.03
2023-05-24T04:53:46.645Z,6.25
2023-05-24T04:54:46.623Z,6.13
2023-05-24T04:55:46.645Z,5.85
2023-05-24T04:56:46.650Z,5.93
2023-05-24T04:57:46.677Z,5.94
2023-05-24T04:58:46.626Z,5.82
2023-05-24T04:59:46.601Z,5.63
2023-05-24T05:00:46.582Z,5.54
2023-05-24T05:01:46.673Z,5.58
2023-05-24T05:02:46.652Z,5.54
2023-05-24T05:03:46.628Z,5.49
2023-05-24T05:04:46.567Z,5.66
2023-05-24T05:05:46.613Z,5.74
2023-05-24T05:06:46.555Z,5.75
2023-05-24T05:07:46.515Z,5.60
2023-05-24T05:08:46.531Z,5.03
2023-05-24T05:09:46.488Z,5.21
2023-05-24T05:10:46.484Z,5.28
2023-05-24T05:11:46.489Z,5.34
2023-05-24T05:12:46.480Z,5.42
2023-05-24T05:13:46.468Z,5.60
2023-05-24T05:14:46.471Z,5.66
2023-05-24T05:15:46.456Z,5.57
2023-05-24T05:16:46.744Z,5.44
2023-05-24T05:17:46.446Z,5.31
2023-05-24T05:18:46.435Z,5.16
2023-05-24T05:19:46.422Z,5.12
2023-05-24T05:20:46.716Z,5.01
2023-05-24T05:21:46.406Z,5.15
2023-05-24T05:22:46.370Z,5.08
2023-05-24T05:23:46.379Z,4.99
2023-05-24T05:24:46.352Z,5.14
2023-05-24T05:25:46.362Z,5.11
2023-05-24T05:26:46.371Z,5.23
2023-05-24T05:27:46.388Z,5.05
2023-05-24T05:28:46.343Z,5.04
2023-05-24T05:29:46.341Z,5.23
2023-05-24T05:30:46.373Z,5.29
2023-05-24T05:31:46.360Z,5.39
2023-05-24T05:32:46.554Z,5.50
2023-05-24T05:33:46.385Z,6.05
2023-05-24T05:34:46.360Z,6.58
2023-05-24T05:35:46.343Z,7.08
2023-05-24T05:36:46.354Z,7.80
2023-05-24T05:37:46.400Z,8.44
2023-05-24T05:38:46.401Z,9.37
2023-05-24T05:39:46.350Z,10.37
2023-05-24T05:40:46.349Z,10.42
2023-05-24T05:41:46.372Z,10.73
2023-05-24T05:42:46.318Z,11.43
2023-05-24T05:43:46.304Z,12.77
2023-05-24T05:44:46.364Z,10.51
2023-05-24T05:45:46.384Z,11.00
2023-05-24T05:46:46.538Z,10.52
2023-05-24T05:47:46.306Z,11.07
2023-05-24T05:48:46.574Z,12.46
2023-05-24T05:49:46.254Z,15.55
2023-05-24T05:50:46.294Z,20.68
2023-05-24T05:51:46.237Z,22.80
2023-05-24T05:52:46.222Z,23.41
2023-05-24T05:53:46.312Z,23.41
2023-05-24T05:54:46.310Z,24.01
2023-05-24T05:55:46.295Z,25.19
2023-05-24T05:56:46.368Z,24.86
2023-05-24T05:57:46.425Z,25.22
2023-05-24T05:58:46.466Z,25.02
2023-05-24T05:59:46.507Z,26.04
2023-05-24T06:00:46.646Z,27.05
2023-05-24T06:01:46.634Z,27.58
2023-05-24T06:02:46.955Z,27.63
2023-05-24T06:03:46.961Z,27.47
2023-05-24T06:04:46.791Z,27.87
2023-05-24T06:05:46.830Z,27.56
2023-05-24T06:06:46.898Z,27.76
2023-05-24T06:07:46.894Z,28.30
2023-05-24T06:08:46.912Z,26.71
2023-05-24T06:09:46.928Z,27.08
2023-05-24T06:10:46.980Z,26.71
2023-05-24T06:11:47.077Z,26.46
2023-05-24T06:12:47.056Z,26.18
2023-05-24T06:13:47.134Z,25.36
2023-05-24T06:14:47.009Z,25.93
2023-05-24T06:15:47.156Z,25.71
2023-05-24T06:16:47.120Z,24.92
2023-05-24T06:17:47.159Z,24.68
2023-05-24T06:18:57.056Z,22.96
2023-05-24T06:19:48.126Z,22.98
2023-05-24T06:20:47.250Z,22.60
2023-05-24T06:21:47.113Z,22.20
2023-05-24T06:22:47.286Z,21.69
2023-05-24T06:23:47.197Z,21.39
2023-05-24T06:24:47.062Z,20.09
2023-05-24T06:25:47.055Z,20.09
2023-05-24T06:26:47.489Z,19.33
2023-05-24T06:27:47.356Z,18.87
2023-05-24T06:28:47.029Z,18.53
2023-05-24T06:29:47.079Z,19.03
2023-05-24T06:30:47.141Z,18.26
2023-05-24T06:31:47.173Z,18.75
2023-05-24T06:32:47.028Z,18.54
2023-05-24T06:33:55.981Z,18.57
2023-05-24T06:34:47.997Z,18.57
2023-05-24T06:35:46.995Z,18.58
2023-05-24T06:36:46.983Z,18.56
2023-05-24T06:37:46.992Z,17.67
2023-05-24T06:38:46.976Z,17.37
2023-05-24T06:39:46.953Z,17.43
2023-05-24T06:40:47.050Z,16.90
2023-05-24T06:41:47.128Z,16.80
2023-05-24T06:42:46.935Z,17.54
2023-05-24T06:43:46.939Z,17.99
2023-05-24T06:44:46.921Z,19.10
2023-05-24T06:45:46.943Z,18.60
2023-05-24T06:46:47.034Z,18.80
2023-05-24T06:47:47.151Z,18.54
2023-05-24T06:48:47.200Z,17.99
2023-05-24T06:49:47.162Z,18.84
2023-05-24T06:50:47.349Z,19.59
2023-05-24T06:51:47.257Z,20.14
2023-05-24T06:52:47.373Z,19.92
2023-05-24T06:53:47.328Z,19.94
2023-05-24T06:54:47.297Z,19.80
2023-05-24T06:55:47.319Z,20.38
2023-05-24T06:56:47.287Z,21.24
2023-05-24T06:57:47.249Z,23.62
2023-05-24T06:58:47.218Z,24.89
2023-05-24T06:59:47.202Z,25.52
2023-05-24T07:00:47.227Z,26.52
2023-05-24T07:01:47.258Z,25.92
2023-05-24T07:02:47.302Z,24.76
2023-05-24T07:03:47.335Z,25.71
2023-05-24T07:04:47.405Z,26.51
2023-05-24T07:05:47.432Z,26.37
2023-05-24T07:06:47.480Z,27.27
2023-05-24T07:07:47.507Z,27.37
2023-05-24T07:08:47.563Z,27.53
2023-05-24T07:09:47.594Z,27.85
2023-05-24T07:10:47.591Z,27.94
2023-05-24T07:11:47.604Z,28.27
2023-05-24T07:12:47.548Z,28.71
2023-05-24T07:13:47.550Z,29.72
2023-05-24T07:14:47.532Z,31.37
2023-05-24T07:15:47.551Z,30.72
2023-05-24T07:16:47.606Z,31.34
2023-05-24T07:17:47.545Z,31.17
2023-05-24T07:18:47.486Z,28.18
2023-05-24T07:19:47.488Z,29.31
2023-05-24T07:20:48.002Z,29.12
2023-05-24T07:21:47.517Z,29.08
2023-05-24T07:22:47.581Z,29.59
2023-05-24T07:23:47.538Z,28.63
2023-05-24T07:24:47.578Z,28.00
2023-05-24T07:25:47.619Z,27.89
2023-05-24T07:26:47.656Z,25.96
2023-05-24T07:27:47.699Z,26.10
2023-05-24T07:28:47.734Z,24.20
2023-05-24T07:29:48.510Z,21.36
2023-05-24T07:30:48.061Z,20.35
2023-05-24T07:31:48.748Z,19.79
2023-05-24T07:32:47.995Z,19.13
2023-05-24T07:33:47.939Z,17.59
2023-05-24T07:34:47.935Z,16.69
2023-05-24T07:35:47.967Z,16.19
2023-05-24T07:36:48.082Z,16.14
2023-05-24T07:37:48.043Z,16.17
2023-05-24T07:38:47.983Z,15.95
2023-05-24T07:39:47.964Z,13.62
2023-05-24T07:40:48.052Z,6.11
2023-05-24T07:41:48.012Z,5.30
2023-05-24T07:42:47.939Z,5.68
2023-05-24T07:43:47.971Z,6.52
2023-05-24T07:44:47.921Z,6.97
2023-05-24T07:45:47.980Z,7.02
2023-05-24T07:46:47.941Z,7.09
2023-05-24T07:47:48.067Z,7.54
2023-05-24T07:48:48.208Z,7.90
2023-05-24T07:49:48.030Z,8.30
2023-05-24T07:50:48.063Z,8.68
2023-05-24T07:51:48.083Z,9.09
2023-05-24T07:52:48.145Z,9.76
2023-05-24T07:53:48.219Z,10.34
2023-05-24T07:54:48.140Z,11.05
2023-05-24T07:55:48.178Z,12.33
2023-05-24T07:56:48.254Z,12.64
2023-05-24T07:57:48.180Z,13.56
2023-05-24T07:58:48.192Z,15.33
2023-05-24T07:59:48.223Z,16.63
2023-05-24T08:00:48.223Z,16.61
2023-05-24T08:01:48.697Z,15.49
2023-05-24T08:02:48.297Z,14.46
2023-05-24T08:03:48.400Z,14.20
2023-05-24T08:04:48.264Z,12.68
2023-05-24T08:05:48.271Z,12.37
2023-05-24T08:06:48.317Z,9.81
2023-05-24T08:07:48.376Z,10.15
2023-05-24T08:08:48.303Z,9.37
2023-05-24T08:09:48.311Z,8.93
2023-05-24T08:10:48.326Z,7.49
2023-05-24T08:11:48.357Z,7.40
2023-05-24T08:12:48.332Z,7.29
2023-05-24T08:13:48.369Z,7.09
2023-05-24T08:14:48.356Z,6.81
2023-05-24T08:15:48.378Z,6.77
2023-05-24T08:16:48.427Z,6.68
2023-05-24T08:17:48.460Z,6.29
2023-05-24T08:18:48.389Z,5.65
2023-05-24T08:19:48.406Z,4.56
2023-05-24T08:20:48.531Z,4.51
2023-05-24T08:21:48.427Z,5.07
2023-05-24T08:22:48.461Z,4.75
2023-05-24T08:23:48.467Z,4.57
2023-05-24T08:24:48.490Z,4.73
2023-05-24T08:25:48.642Z,4.81
2023-05-24T08:26:48.519Z,4.84
2023-05-24T08:27:48.565Z,4.82
2023-05-24T08:28:48.579Z,4.87
2023-05-24T08:29:48.539Z,5.01
2023-05-24T08:30:48.556Z,2.69
2023-05-24T08:31:48.553Z,2.41
2023-05-24T08:32:48.637Z,2.25
2023-05-24T08:33:48.562Z,1.74
2023-05-24T08:34:48.562Z,1.85
2023-05-24T08:35:49.211Z,1.54
2023-05-24T08:36:48.607Z,1.33
2023-05-24T08:37:48.657Z,1.40
2023-05-24T08:38:48.660Z,1.18
2023-05-24T08:39:48.662Z,1.07
2023-05-24T08:40:48.701Z,1.07
2023-05-24T08:42:01.037Z,1.04
2023-05-24T08:42:49.791Z,0.97
2023-05-24T08:43:48.799Z,0.86
2023-05-24T08:44:48.849Z,0.88
2023-05-24T08:45:48.924Z,0.94
2023-05-24T08:46:48.994Z,1.14
2023-05-24T08:47:49.034Z,1.36
2023-05-24T08:48:48.951Z,1.53
2023-05-24T08:49:49.056Z,1.99
2023-05-24T08:50:48.961Z,2.56
2023-05-24T08:51:50.840Z,3.29
2023-05-24T08:52:49.082Z,4.26
2023-05-24T08:53:49.187Z,5.28
2023-05-24T08:54:49.159Z,6.43
2023-05-24T08:55:49.221Z,7.37
2023-05-24T08:56:49.242Z,8.21
2023-05-24T08:57:49.279Z,8.72
2023-05-24T08:58:49.282Z,8.81
2023-05-24T08:59:49.320Z,9.28
2023-05-24T09:00:49.362Z,9.84
2023-05-24T09:01:49.365Z,10.25
2023-05-24T09:02:49.299Z,10.28
2023-05-24T09:03:49.340Z,10.39
2023-05-24T09:04:49.304Z,10.74
2023-05-24T09:05:49.307Z,11.39
2023-05-24T09:06:49.719Z,12.42
2023-05-24T09:07:49.483Z,12.41
2023-05-24T09:08:49.373Z,12.67
2023-05-24T09:09:49.302Z,12.69
2023-05-24T09:10:55.638Z,12.79
2023-05-24T09:11:50.332Z,12.72
2023-05-24T09:12:49.363Z,12.73
2023-05-24T09:13:49.305Z,12.95
2023-05-24T09:14:49.309Z,13.47
2023-05-24T09:15:49.379Z,14.09
2023-05-24T09:16:49.342Z,15.57
2023-05-24T09:17:49.362Z,15.64
2023-05-24T09:18:49.396Z,16.07
2023-05-24T09:19:49.344Z,16.48
2023-05-24T09:20:49.384Z,16.47
2023-05-24T09:21:49.331Z,16.70
2023-05-24T09:22:49.392Z,17.29
2023-05-24T09:23:49.350Z,17.46
2023-05-24T09:24:49.360Z,17.62
2023-05-24T09:25:49.342Z,17.43
2023-05-24T09:26:49.340Z,17.24
2023-05-24T09:27:49.469Z,17.30
2023-05-24T09:28:49.328Z,17.20
2023-05-24T09:29:49.349Z,16.88
2023-05-24T09:30:49.342Z,17.25
2023-05-24T09:31:49.411Z,16.88
2023-05-24T09:32:49.369Z,16.69
2023-05-24T09:33:49.317Z,17.27
2023-05-24T09:34:49.352Z,17.18
2023-05-24T09:35:49.345Z,17.29
2023-05-24T09:36:49.338Z,18.12
2023-05-24T09:37:49.362Z,17.86
2023-05-24T09:38:49.361Z,17.80
2023-05-24T09:39:49.355Z,18.05
2023-05-24T09:40:49.342Z,18.36
2023-05-24T09:41:49.682Z,19.35
2023-05-24T09:42:49.333Z,21.71
2023-05-24T09:43:49.364Z,10.10
2023-05-24T09:44:49.357Z,11.54
2023-05-24T09:45:49.604Z,8.77
2023-05-24T09:46:49.494Z,8.28
2023-05-24T09:47:49.414Z,6.72
2023-05-24T09:48:49.450Z,6.28
2023-05-24T09:49:49.458Z,6.62
2023-05-24T09:50:49.470Z,6.32
2023-05-24T09:51:49.589Z,5.56
2023-05-24T09:52:49.549Z,5.70
2023-05-24T09:53:49.683Z,5.25
2023-05-24T09:54:49.627Z,4.59
2023-05-24T09:55:49.675Z,3.87
2023-05-24T09:56:49.699Z,4.18
2023-05-24T09:57:49.723Z,4.45
2023-05-24T09:58:49.851Z,4.96
2023-05-24T09:59:49.904Z,4.28
2023-05-24T10:00:50.017Z,4.72
2023-05-24T10:01:50.167Z,4.25
2023-05-24T10:02:53.061Z,4.14
2023-05-24T10:03:50.278Z,4.12
2023-05-24T10:04:50.308Z,4.58
2023-05-24T10:05:50.226Z,5.23
2023-05-24T10:06:50.265Z,7.09
2023-05-24T10:07:50.277Z,8.87
2023-05-24T10:08:50.333Z,10.14
2023-05-24T10:09:50.392Z,10.20
2023-05-24T10:10:50.336Z,10.56
2023-05-24T10:11:50.627Z,11.55
2023-05-24T10:12:50.338Z,13.33
2023-05-24T10:13:50.383Z,16.81
2023-05-24T10:14:50.433Z,18.03
2023-05-24T10:15:50.440Z,18.94
2023-05-24T10:16:50.547Z,18.69
2023-05-24T10:17:50.506Z,19.25
2023-05-24T10:18:50.536Z,19.60
2023-05-24T10:19:50.480Z,19.75
2023-05-24T10:20:51.071Z,20.18
2023-05-24T10:21:50.571Z,21.08
2023-05-24T10:22:50.603Z,22.15
2023-05-24T10:23:50.504Z,23.56
2023-05-24T10:24:50.681Z,25.15
2023-05-24T10:25:50.500Z,26.34
2023-05-24T10:26:50.544Z,26.39
2023-05-24T10:27:50.533Z,26.65
2023-05-24T10:28:50.525Z,27.41
2023-05-24T10:29:50.556Z,28.86
2023-05-24T10:30:50.680Z,32.18
2023-05-24T10:31:50.596Z,32.69
2023-05-24T10:32:50.634Z,33.76
2023-05-24T10:33:50.586Z,35.16
2023-05-24T10:34:50.604Z,35.01
2023-05-24T10:35:50.662Z,35.97
2023-05-24T10:36:50.750Z,35.60
2023-05-24T10:37:50.788Z,35.82
2023-05-24T10:38:50.791Z,35.75
2023-05-24T10:39:50.817Z,35.34
2023-05-24T10:40:50.980Z,35.97
2023-05-24T10:41:50.859Z,35.94
2023-05-24T10:42:50.825Z,36.66
2023-05-24T10:44:04.857Z,38.41
2023-05-24T10:44:51.834Z,36.13
2023-05-24T10:45:50.901Z,37.21
2023-05-24T10:46:50.836Z,39.73
2023-05-24T10:47:50.884Z,44.21
2023-05-24T10:48:50.812Z,51.05
2023-05-24T10:49:50.826Z,52.25
2023-05-24T10:50:50.890Z,54.10
2023-05-24T10:51:50.824Z,56.72
2023-05-24T10:52:50.839Z,59.92
2023-05-24T10:53:50.817Z,63.30
2023-05-24T10:55:03.268Z,66.23
2023-05-24T10:55:51.840Z,66.35
2023-05-24T10:56:50.818Z,66.60
2023-05-24T10:57:50.818Z,68.51
2023-05-24T10:58:50.814Z,72.01
2023-05-24T10:59:50.880Z,74.95
2023-05-24T11:00:50.946Z,78.76
2023-05-24T11:01:50.863Z,77.65
2023-05-24T11:02:50.858Z,78.50
2023-05-24T11:03:50.822Z,77.21
2023-05-24T11:04:50.824Z,85.83
2023-05-24T11:05:50.987Z,92.76
2023-05-24T11:06:50.870Z,93.69
2023-05-24T11:07:50.803Z,94.99
2023-05-24T11:08:50.800Z,95.12
2023-05-24T11:09:50.799Z,95.88
2023-05-24T11:10:50.788Z,98.12
2023-05-24T11:11:50.809Z,102.56
2023-05-24T11:12:50.841Z,108.44
2023-05-24T11:13:50.876Z,110.24
2023-05-24T11:14:50.805Z,113.39
2023-05-24T11:15:50.826Z,109.61
2023-05-24T11:16:50.843Z,110.65
2023-05-24T11:17:50.854Z,109.20
2023-05-24T11:18:50.756Z,110.45
2023-05-24T11:19:50.808Z,109.80
2023-05-24T11:20:50.822Z,109.15
2023-05-24T11:21:50.725Z,107.40
2023-05-24T11:22:50.722Z,108.61
2023-05-24T11:23:50.674Z,107.88
2023-05-24T11:24:50.692Z,108.03
2023-05-24T11:25:50.626Z,108.95
2023-05-24T11:26:50.631Z,112.88
2023-05-24T11:27:50.728Z,117.77
2023-05-24T11:28:50.566Z,128.29
2023-05-24T11:29:50.606Z,126.90
2023-05-24T11:30:50.621Z,127.27
2023-05-24T11:31:50.535Z,124.93
2023-05-24T11:32:50.515Z,119.94
2023-05-24T11:33:50.461Z,112.22
2023-05-24T11:34:50.510Z,111.20
2023-05-24T11:35:50.438Z,107.69
2023-05-24T11:36:50.414Z,104.32
2023-05-24T11:37:50.389Z,99.99
2023-05-24T11:38:50.384Z,95.53
2023-05-24T11:39:50.359Z,92.20
2023-05-24T11:40:50.329Z,88.30
2023-05-24T11:41:50.358Z,86.84
2023-05-24T11:42:50.314Z,81.57
2023-05-24T11:43:50.290Z,77.55
2023-05-24T11:44:50.284Z,76.19
2023-05-24T11:45:50.319Z,70.78
2023-05-24T11:46:50.297Z,68.85
2023-05-24T11:47:50.247Z,64.03
2023-05-24T11:48:50.231Z,64.09
2023-05-24T11:49:50.182Z,64.05
2023-05-24T11:50:50.645Z,59.78
2023-05-24T11:51:50.169Z,57.38
2023-05-24T11:52:50.145Z,54.89
2023-05-24T11:54:50.139Z,49.47
2023-05-24T11:55:50.139Z,49.33
2023-05-24T11:56:50.114Z,48.13
2023-05-24T11:57:50.063Z,45.83
2023-05-24T11:58:50.070Z,44.14
2023-05-24T11:59:50.029Z,42.18
2023-05-24T12:00:50.010Z,39.71
2023-05-24T12:01:50.032Z,38.57
2023-05-24T12:02:50.131Z,36.85
2023-05-24T12:03:50.395Z,34.86
2023-05-24T12:04:50.227Z,33.09
2023-05-24T12:05:50.195Z,31.76
2023-05-24T12:06:50.213Z,30.90
2023-05-24T12:07:50.266Z,30.04
2023-05-24T12:08:50.308Z,29.39
2023-05-24T12:09:50.318Z,28.47
2023-05-24T12:10:50.382Z,27.90
2023-05-24T12:11:50.417Z,27.10
2023-05-24T12:12:50.440Z,26.50
2023-05-24T12:13:50.476Z,25.72
2023-05-24T12:14:50.520Z,24.89
2023-05-24T12:15:52.687Z,24.26
2023-05-24T12:16:50.549Z,24.28
2023-05-24T12:17:50.610Z,24.15
2023-05-24T12:19:02.355Z,23.64
2023-05-24T12:19:51.510Z,24.28
2023-05-24T12:20:50.623Z,23.99
2023-05-24T12:21:52.734Z,23.30
2023-05-24T12:22:50.471Z,23.46
2023-05-24T12:23:50.408Z,23.38
2023-05-24T12:24:50.365Z,22.67
2023-05-24T12:25:50.342Z,22.14
2023-05-24T12:26:50.359Z,20.61
2023-05-24T12:27:52.294Z,20.33
2023-05-24T12:28:50.304Z,20.36
2023-05-24T12:29:50.272Z,20.36
2023-05-24T12:30:50.242Z,19.96
2023-05-24T12:31:50.283Z,19.90
2023-05-24T12:32:50.237Z,20.16
2023-05-24T12:33:52.125Z,19.24
2023-05-24T12:34:50.185Z,18.73
2023-05-24T12:35:50.253Z,18.61
2023-05-24T12:36:50.133Z,18.18
2023-05-24T12:37:50.108Z,17.01
2023-05-24T12:38:50.082Z,17.08
2023-05-24T12:40:59.952Z,16.70
2023-05-24T12:41:51.042Z,16.72
2023-05-24T12:42:50.132Z,16.75
2023-05-24T12:43:50.122Z,16.45
2023-05-24T12:44:49.985Z,16.21
2023-05-24T12:45:51.183Z,15.80
2023-05-24T12:46:49.995Z,16.05
2023-05-24T12:47:49.932Z,15.91
2023-05-24T12:48:49.909Z,15.39
2023-05-24T12:49:49.894Z,15.21
2023-05-24T12:50:49.888Z,15.03
2023-05-24T12:51:49.868Z,15.19
2023-05-24T12:52:49.866Z,14.61
2023-05-24T12:53:49.837Z,14.32
2023-05-24T12:54:49.835Z,14.20
2023-05-24T12:55:49.809Z,13.85
2023-05-24T12:56:49.798Z,13.71
2023-05-24T12:57:49.773Z,13.31
2023-05-24T12:58:49.768Z,13.18
2023-05-24T12:59:49.741Z,12.90
2023-05-24T13:00:49.737Z,12.70
2023-05-24T13:01:49.714Z,12.73
2023-05-24T13:02:49.765Z,12.67
2023-05-24T13:03:49.677Z,12.59
2023-05-24T13:04:49.724Z,12.68
2023-05-24T13:05:49.700Z,12.53